Terminal Aerodrome Forecast
Issued by NWS Grand Rapids, MI

Home | Current Version | Previous Version | Text Only | Print | Product List | Glossary On
Versions: 1 2 3 4 5 6 7 8 9 10 11 12 13 14 15 16
294
FTUS43 KGRR 252332
TAFGRR
TAF
KGRR 252332Z 2600/2624 28012KT P6SM BKN045 BKN090
     FM260300 26007KT P6SM OVC050
     FM260600 27008KT P6SM VCSH OVC025
     FM261500 28016G26KT P6SM VCSH BKN035=

USA.gov is the U.S. government's official web portal to all federal, state and local government web resources and services.